sensor_id;sensor_type;location;lat;lon;timestamp;P1;P2;P0
70520;PMS5003;58442;52.716;23.560;2023-04-15T00:01:52;13;13;10
70520;PMS5003;58442;52.716;23.560;2023-04-15T00:03:54;10;10;8
70520;PMS5003;58442;52.716;23.560;2023-04-15T00:05:57;17;17;12
70520;PMS5003;58442;52.716;23.560;2023-04-15T00:08:06;15;15;8
70520;PMS5003;58442;52.716;23.560;2023-04-15T00:10:07;9;9;8
70520;PMS5003;58442;52.716;23.560;2023-04-15T00:12:09;17;17;12
70520;PMS5003;58442;52.716;23.560;2023-04-15T00:14:12;21;21;12
70520;PMS5003;58442;52.716;23.560;2023-04-15T00:16:21;16;16;12
70520;PMS5003;58442;52.716;23.560;2023-04-15T00:18:22;14;14;10
70520;PMS5003;58442;52.716;23.560;2023-04-15T00:20:24;15;15;11
70520;PMS5003;58442;52.716;23.560;2023-04-15T00:22:26;14;14;10
70520;PMS5003;58442;52.716;23.560;2023-04-15T00:24:35;20;20;12
70520;PMS5003;58442;52.716;23.560;2023-04-15T00:26:37;16;15;11
70520;PMS5003;58442;52.716;23.560;2023-04-15T00:28:39;17;17;13
70520;PMS5003;58442;52.716;23.560;2023-04-15T00:30:40;16;16;11
70520;PMS5003;58442;52.716;23.560;2023-04-15T00:32:50;17;17;12
70520;PMS5003;58442;52.716;23.560;2023-04-15T00:34:52;15;15;11
70520;PMS5003;58442;52.716;23.560;2023-04-15T00:36:54;19;19;12
70520;PMS5003;58442;52.716;23.560;2023-04-15T00:38:55;17;17;13
70520;PMS5003;58442;52.716;23.560;2023-04-15T00:41:05;22;22;13
70520;PMS5003;58442;52.716;23.560;2023-04-15T00:43:07;14;13;9
70520;PMS5003;58442;52.716;23.560;2023-04-15T00:45:08;14;14;10
70520;PMS5003;58442;52.716;23.560;2023-04-15T00:47:11;20;20;12
70520;PMS5003;58442;52.716;23.560;2023-04-15T00:49:20;16;16;12
70520;PMS5003;58442;52.716;23.560;2023-04-15T00:51:23;15;15;12
70520;PMS5003;58442;52.716;23.560;2023-04-15T00:53:25;16;16;10
70520;PMS5003;58442;52.716;23.560;2023-04-15T00:55:26;18;18;12
70520;PMS5003;58442;52.716;23.560;2023-04-15T00:57:35;16;16;15
70520;PMS5003;58442;52.716;23.560;2023-04-15T00:59:38;17;17;12
70520;PMS5003;58442;52.716;23.560;2023-04-15T01:01:40;16;16;13
70520;PMS5003;58442;52.716;23.560;2023-04-15T01:03:43;15;15;13
70520;PMS5003;58442;52.716;23.560;2023-04-15T01:05:50;17;17;12
70520;PMS5003;58442;52.716;23.560;2023-04-15T01:07:58;14;14;11
70520;PMS5003;58442;52.716;23.560;2023-04-15T01:09:59;16;16;12
70520;PMS5003;58442;52.716;23.560;2023-04-15T01:12:03;12;12;11
70520;PMS5003;58442;52.716;23.560;2023-04-15T01:14:05;15;15;9
70520;PMS5003;58442;52.716;23.560;2023-04-15T01:16:08;15;15;11
70520;PMS5003;58442;52.716;23.560;2023-04-15T01:18:12;13;13;10
70520;PMS5003;58442;52.716;23.560;2023-04-15T01:20:15;12;12;6
70520;PMS5003;58442;52.716;23.560;2023-04-15T01:22:20;16;16;13
70520;PMS5003;58442;52.716;23.560;2023-04-15T01:24:22;18;18;12
70520;PMS5003;58442;52.716;23.560;2023-04-15T01:26:26;13;13;8
70520;PMS5003;58442;52.716;23.560;2023-04-15T01:28:29;12;12;10
70520;PMS5003;58442;52.716;23.560;2023-04-15T01:30:35;11;11;9
70520;PMS5003;58442;52.716;23.560;2023-04-15T01:32:36;14;14;10
70520;PMS5003;58442;52.716;23.560;2023-04-15T01:34:38;17;17;11
70520;PMS5003;58442;52.716;23.560;2023-04-15T01:36:39;13;13;9
70520;PMS5003;58442;52.716;23.560;2023-04-15T01:38:49;11;11;9
70520;PMS5003;58442;52.716;23.560;2023-04-15T01:40:51;14;14;11
70520;PMS5003;58442;52.716;23.560;2023-04-15T01:42:54;12;12;10
70520;PMS5003;58442;52.716;23.560;2023-04-15T01:44:55;11;11;9
70520;PMS5003;58442;52.716;23.560;2023-04-15T01:47:04;9;9;8
70520;PMS5003;58442;52.716;23.560;2023-04-15T01:49:06;10;10;7
70520;PMS5003;58442;52.716;23.560;2023-04-15T01:51:08;13;13;9
70520;PMS5003;58442;52.716;23.560;2023-04-15T01:53:09;10;10;7
70520;PMS5003;58442;52.716;23.560;2023-04-15T01:55:19;13;13;10
70520;PMS5003;58442;52.716;23.560;2023-04-15T01:57:21;13;13;10
70520;PMS5003;58442;52.716;23.560;2023-04-15T01:59:22;10;10;6
70520;PMS5003;58442;52.716;23.560;2023-04-15T02:01:24;13;13;9
70520;PMS5003;58442;52.716;23.560;2023-04-15T02:03:34;10;10;8
70520;PMS5003;58442;52.716;23.560;2023-04-15T02:05:37;18;17;11
70520;PMS5003;58442;52.716;23.560;2023-04-15T02:07:38;16;14;11
70520;PMS5003;58442;52.716;23.560;2023-04-15T02:09:39;13;11;8
70520;PMS5003;58442;52.716;23.560;2023-04-15T02:11:49;20;15;9
70520;PMS5003;58442;52.716;23.560;2023-04-15T02:13:53;9;9;6
70520;PMS5003;58442;52.716;23.560;2023-04-15T02:15:55;9;9;5
70520;PMS5003;58442;52.716;23.560;2023-04-15T02:17:57;13;13;10
70520;PMS5003;58442;52.716;23.560;2023-04-15T02:20:04;15;14;9
70520;PMS5003;58442;52.716;23.560;2023-04-15T02:22:06;12;11;9
70520;PMS5003;58442;52.716;23.560;2023-04-15T02:24:10;12;12;10
70520;PMS5003;58442;52.716;23.560;2023-04-15T02:26:12;9;9;7
70520;PMS5003;58442;52.716;23.560;2023-04-15T02:28:19;14;14;12
70520;PMS5003;58442;52.716;23.560;2023-04-15T02:30:20;12;11;8
70520;PMS5003;58442;52.716;23.560;2023-04-15T02:32:25;13;13;7
70520;PMS5003;58442;52.716;23.560;2023-04-15T02:34:26;11;11;8
70520;PMS5003;58442;52.716;23.560;2023-04-15T02:36:33;6;6;4
70520;PMS5003;58442;52.716;23.560;2023-04-15T02:38:35;15;15;9
70520;PMS5003;58442;52.716;23.560;2023-04-15T02:40:40;12;12;10
70520;PMS5003;58442;52.716;23.560;2023-04-15T02:42:41;14;14;11
70520;PMS5003;58442;52.716;23.560;2023-04-15T02:44:48;11;11;8
70520;PMS5003;58442;52.716;23.560;2023-04-15T02:46:50;13;13;9
70520;PMS5003;58442;52.716;23.560;2023-04-15T02:48:54;12;12;9
70520;PMS5003;58442;52.716;23.560;2023-04-15T02:53:08;9;9;6
70520;PMS5003;58442;52.716;23.560;2023-04-15T02:55:10;11;11;8
70520;PMS5003;58442;52.716;23.560;2023-04-15T02:57:12;13;13;7
70520;PMS5003;58442;52.716;23.560;2023-04-15T02:59:14;15;15;9
70520;PMS5003;58442;52.716;23.560;2023-04-15T03:01:18;15;15;9
70520;PMS5003;58442;52.716;23.560;2023-04-15T03:03:20;12;12;9
70520;PMS5003;58442;52.716;23.560;2023-04-15T03:05:22;15;14;8
70520;PMS5003;58442;52.716;23.560;2023-04-15T03:07:25;13;13;12
70520;PMS5003;58442;52.716;23.560;2023-04-15T03:09:33;12;12;8
70520;PMS5003;58442;52.716;23.560;2023-04-15T03:11:35;11;10;7
70520;PMS5003;58442;52.716;23.560;2023-04-15T03:13:41;11;11;9
70520;PMS5003;58442;52.716;23.560;2023-04-15T03:15:45;10;9;8
70520;PMS5003;58442;52.716;23.560;2023-04-15T03:17:48;6;6;5
70520;PMS5003;58442;52.716;23.560;2023-04-15T03:19:50;12;12;9
70520;PMS5003;58442;52.716;23.560;2023-04-15T03:21:51;10;10;8
70520;PMS5003;58442;52.716;23.560;2023-04-15T03:23:52;11;11;8
70520;PMS5003;58442;52.716;23.560;2023-04-15T03:26:03;13;13;9
70520;PMS5003;58442;52.716;23.560;2023-04-15T03:28:05;18;16;12
70520;PMS5003;58442;52.716;23.560;2023-04-15T03:30:07;11;11;7
70520;PMS5003;58442;52.716;23.560;2023-04-15T03:32:09;13;12;9
70520;PMS5003;58442;52.716;23.560;2023-04-15T03:34:18;11;11;9
70520;PMS5003;58442;52.716;23.560;2023-04-15T03:36:20;12;12;7
70520;PMS5003;58442;52.716;23.560;2023-04-15T03:38:21;19;19;12
70520;PMS5003;58442;52.716;23.560;2023-04-15T03:40:23;15;15;11
70520;PMS5003;58442;52.716;23.560;2023-04-15T03:42:32;11;11;7
70520;PMS5003;58442;52.716;23.560;2023-04-15T03:44:34;13;13;8
70520;PMS5003;58442;52.716;23.560;2023-04-15T03:46:35;14;14;9
70520;PMS5003;58442;52.716;23.560;2023-04-15T03:48:37;8;8;6
70520;PMS5003;58442;52.716;23.560;2023-04-15T03:50:47;11;11;9
70520;PMS5003;58442;52.716;23.560;2023-04-15T03:52:49;12;12;9
70520;PMS5003;58442;52.716;23.560;2023-04-15T03:54:50;19;15;10
70520;PMS5003;58442;52.716;23.560;2023-04-15T03:56:52;13;13;6
70520;PMS5003;58442;52.716;23.560;2023-04-15T03:59:02;17;17;10
70520;PMS5003;58442;52.716;23.560;2023-04-15T04:01:04;16;16;10
70520;PMS5003;58442;52.716;23.560;2023-04-15T04:03:05;13;13;7
70520;PMS5003;58442;52.716;23.560;2023-04-15T04:05:08;8;8;6
70520;PMS5003;58442;52.716;23.560;2023-04-15T04:07:17;13;13;8
70520;PMS5003;58442;52.716;23.560;2023-04-15T04:09:19;8;8;6
70520;PMS5003;58442;52.716;23.560;2023-04-15T04:11:20;11;11;8
70520;PMS5003;58442;52.716;23.560;2023-04-15T04:13:21;11;11;7
70520;PMS5003;58442;52.716;23.560;2023-04-15T04:15:32;11;11;8
70520;PMS5003;58442;52.716;23.560;2023-04-15T04:17:34;11;11;8
70520;PMS5003;58442;52.716;23.560;2023-04-15T04:19:36;9;9;7
70520;PMS5003;58442;52.716;23.560;2023-04-15T04:21:37;8;8;7
70520;PMS5003;58442;52.716;23.560;2023-04-15T04:23:47;10;10;7
70520;PMS5003;58442;52.716;23.560;2023-04-15T04:25:48;8;8;7
70520;PMS5003;58442;52.716;23.560;2023-04-15T04:27:50;12;12;8
70520;PMS5003;58442;52.716;23.560;2023-04-15T04:29:51;12;12;7
70520;PMS5003;58442;52.716;23.560;2023-04-15T04:32:02;12;12;10
70520;PMS5003;58442;52.716;23.560;2023-04-15T04:34:03;9;9;8
70520;PMS5003;58442;52.716;23.560;2023-04-15T04:36:05;8;8;5
70520;PMS5003;58442;52.716;23.560;2023-04-15T04:38:07;9;9;8
70520;PMS5003;58442;52.716;23.560;2023-04-15T04:40:17;11;11;7
70520;PMS5003;58442;52.716;23.560;2023-04-15T04:42:18;7;7;5
70520;PMS5003;58442;52.716;23.560;2023-04-15T04:44:20;12;12;8
70520;PMS5003;58442;52.716;23.560;2023-04-15T04:46:21;11;11;8
70520;PMS5003;58442;52.716;23.560;2023-04-15T04:48:31;8;8;5
70520;PMS5003;58442;52.716;23.560;2023-04-15T04:50:33;10;10;6
70520;PMS5003;58442;52.716;23.560;2023-04-15T04:52:36;17;17;9
70520;PMS5003;58442;52.716;23.560;2023-04-15T04:54:37;6;6;5
70520;PMS5003;58442;52.716;23.560;2023-04-15T04:56:46;8;8;6
70520;PMS5003;58442;52.716;23.560;2023-04-15T04:58:48;13;13;11
70520;PMS5003;58442;52.716;23.560;2023-04-15T05:00:49;13;12;8
70520;PMS5003;58442;52.716;23.560;2023-04-15T05:02:51;15;15;8
70520;PMS5003;58442;52.716;23.560;2023-04-15T05:05:01;13;13;9
70520;PMS5003;58442;52.716;23.560;2023-04-15T05:07:03;9;9;7
70520;PMS5003;58442;52.716;23.560;2023-04-15T05:09:04;10;10;10
70520;PMS5003;58442;52.716;23.560;2023-04-15T05:11:06;10;10;9
70520;PMS5003;58442;52.716;23.560;2023-04-15T05:13:16;12;12;10
70520;PMS5003;58442;52.716;23.560;2023-04-15T05:15:18;14;14;11
70520;PMS5003;58442;52.716;23.560;2023-04-15T05:17:20;9;9;7
70520;PMS5003;58442;52.716;23.560;2023-04-15T05:19:21;11;11;8
70520;PMS5003;58442;52.716;23.560;2023-04-15T05:21:31;13;13;9
70520;PMS5003;58442;52.716;23.560;2023-04-15T05:23:32;12;11;8
70520;PMS5003;58442;52.716;23.560;2023-04-15T05:25:34;12;12;10
70520;PMS5003;58442;52.716;23.560;2023-04-15T05:27:36;14;14;11
70520;PMS5003;58442;52.716;23.560;2023-04-15T05:29:47;10;10;7
70520;PMS5003;58442;52.716;23.560;2023-04-15T05:31:48;14;14;10
70520;PMS5003;58442;52.716;23.560;2023-04-15T05:33:50;11;11;9
70520;PMS5003;58442;52.716;23.560;2023-04-15T05:35:52;12;12;10
70520;PMS5003;58442;52.716;23.560;2023-04-15T05:38:01;10;10;8
70520;PMS5003;58442;52.716;23.560;2023-04-15T05:40:03;10;10;8
70520;PMS5003;58442;52.716;23.560;2023-04-15T05:42:04;14;13;9
70520;PMS5003;58442;52.716;23.560;2023-04-15T05:44:07;11;11;8
70520;PMS5003;58442;52.716;23.560;2023-04-15T05:46:16;15;15;10
70520;PMS5003;58442;52.716;23.560;2023-04-15T05:48:17;12;12;10
70520;PMS5003;58442;52.716;23.560;2023-04-15T05:50:19;12;12;7
70520;PMS5003;58442;52.716;23.560;2023-04-15T05:52:21;13;13;9
70520;PMS5003;58442;52.716;23.560;2023-04-15T05:54:31;13;13;11
70520;PMS5003;58442;52.716;23.560;2023-04-15T05:56:32;15;15;11
70520;PMS5003;58442;52.716;23.560;2023-04-15T05:58:33;14;14;10
70520;PMS5003;58442;52.716;23.560;2023-04-15T06:00:35;12;12;11
70520;PMS5003;58442;52.716;23.560;2023-04-15T06:02:45;14;14;10
70520;PMS5003;58442;52.716;23.560;2023-04-15T06:04:47;9;9;7
70520;PMS5003;58442;52.716;23.560;2023-04-15T06:06:48;7;7;6
70520;PMS5003;58442;52.716;23.560;2023-04-15T06:08:50;13;13;10
70520;PMS5003;58442;52.716;23.560;2023-04-15T06:11:00;17;17;11
70520;PMS5003;58442;52.716;23.560;2023-04-15T06:13:02;12;12;9
70520;PMS5003;58442;52.716;23.560;2023-04-15T06:15:04;14;14;10
70520;PMS5003;58442;52.716;23.560;2023-04-15T06:17:06;13;13;9
70520;PMS5003;58442;52.716;23.560;2023-04-15T06:19:15;17;17;11
70520;PMS5003;58442;52.716;23.560;2023-04-15T06:21:17;17;17;12
70520;PMS5003;58442;52.716;23.560;2023-04-15T06:23:19;13;13;8
70520;PMS5003;58442;52.716;23.560;2023-04-15T06:25:21;12;12;8
70520;PMS5003;58442;52.716;23.560;2023-04-15T06:27:30;15;15;10
70520;PMS5003;58442;52.716;23.560;2023-04-15T06:29:31;9;9;8
70520;PMS5003;58442;52.716;23.560;2023-04-15T06:31:33;11;11;8
70520;PMS5003;58442;52.716;23.560;2023-04-15T06:33:34;15;14;11
70520;PMS5003;58442;52.716;23.560;2023-04-15T06:35:45;13;12;8
70520;PMS5003;58442;52.716;23.560;2023-04-15T06:37:49;18;18;13
70520;PMS5003;58442;52.716;23.560;2023-04-15T06:39:51;14;14;9
70520;PMS5003;58442;52.716;23.560;2023-04-15T06:41:52;12;12;9
70520;PMS5003;58442;52.716;23.560;2023-04-15T06:44:00;14;14;10
70520;PMS5003;58442;52.716;23.560;2023-04-15T06:46:01;12;12;9
70520;PMS5003;58442;52.716;23.560;2023-04-15T06:48:03;13;13;12
70520;PMS5003;58442;52.716;23.560;2023-04-15T06:50:06;13;13;8
70520;PMS5003;58442;52.716;23.560;2023-04-15T06:52:15;15;15;11
70520;PMS5003;58442;52.716;23.560;2023-04-15T06:54:16;10;10;9
70520;PMS5003;58442;52.716;23.560;2023-04-15T06:56:17;20;18;11
70520;PMS5003;58442;52.716;23.560;2023-04-15T06:58:19;13;13;10
70520;PMS5003;58442;52.716;23.560;2023-04-15T07:00:30;14;14;9
70520;PMS5003;58442;52.716;23.560;2023-04-15T07:02:33;16;15;8
70520;PMS5003;58442;52.716;23.560;2023-04-15T07:04:35;11;10;7
70520;PMS5003;58442;52.716;23.560;2023-04-15T07:06:37;10;10;7
70520;PMS5003;58442;52.716;23.560;2023-04-15T07:08:44;12;12;9
70520;PMS5003;58442;52.716;23.560;2023-04-15T07:10:46;14;14;11
70520;PMS5003;58442;52.716;23.560;2023-04-15T07:12:47;11;11;9
70520;PMS5003;58442;52.716;23.560;2023-04-15T07:14:50;14;14;9
70520;PMS5003;58442;52.716;23.560;2023-04-15T07:16:59;38;34;22
70520;PMS5003;58442;52.716;23.560;2023-04-15T07:19:01;20;19;13
70520;PMS5003;58442;52.716;23.560;2023-04-15T07:21:03;13;13;10
70520;PMS5003;58442;52.716;23.560;2023-04-15T07:23:04;10;10;7
70520;PMS5003;58442;52.716;23.560;2023-04-15T07:25:14;12;12;9
70520;PMS5003;58442;52.716;23.560;2023-04-15T07:27:17;9;9;7
70520;PMS5003;58442;52.716;23.560;2023-04-15T07:29:18;11;11;9
70520;PMS5003;58442;52.716;23.560;2023-04-15T07:31:20;9;9;7
70520;PMS5003;58442;52.716;23.560;2023-04-15T07:33:29;9;9;7
70520;PMS5003;58442;52.716;23.560;2023-04-15T07:35:31;12;12;9
70520;PMS5003;58442;52.716;23.560;2023-04-15T07:37:33;8;8;6
70520;PMS5003;58442;52.716;23.560;2023-04-15T07:39:35;8;8;6
70520;PMS5003;58442;52.716;23.560;2023-04-15T07:41:44;6;6;5
70520;PMS5003;58442;52.716;23.560;2023-04-15T07:43:46;9;9;6
70520;PMS5003;58442;52.716;23.560;2023-04-15T07:45:48;9;9;7
70520;PMS5003;58442;52.716;23.560;2023-04-15T07:47:49;3;3;3
70520;PMS5003;58442;52.716;23.560;2023-04-15T07:49:59;2;2;2
70520;PMS5003;58442;52.716;23.560;2023-04-15T07:52:01;6;6;5
70520;PMS5003;58442;52.716;23.560;2023-04-15T07:54:03;6;6;5
70520;PMS5003;58442;52.716;23.560;2023-04-15T07:56:05;9;9;8
70520;PMS5003;58442;52.716;23.560;2023-04-15T07:58:14;6;6;4
70520;PMS5003;58442;52.716;23.560;2023-04-15T08:00:15;10;10;8
70520;PMS5003;58442;52.716;23.560;2023-04-15T08:02:18;7;7;6
70520;PMS5003;58442;52.716;23.560;2023-04-15T08:04:19;9;9;7
70520;PMS5003;58442;52.716;23.560;2023-04-15T08:06:28;7;7;5
70520;PMS5003;58442;52.716;23.560;2023-04-15T08:08:30;9;9;8
70520;PMS5003;58442;52.716;23.560;2023-04-15T08:10:32;4;4;3
70520;PMS5003;58442;52.716;23.560;2023-04-15T08:12:33;8;8;6
70520;PMS5003;58442;52.716;23.560;2023-04-15T08:14:43;6;6;5
70520;PMS5003;58442;52.716;23.560;2023-04-15T08:16:46;5;5;4
70520;PMS5003;58442;52.716;23.560;2023-04-15T08:18:48;6;6;5
70520;PMS5003;58442;52.716;23.560;2023-04-15T08:20:50;7;7;5
70520;PMS5003;58442;52.716;23.560;2023-04-15T08:22:58;5;5;4
70520;PMS5003;58442;52.716;23.560;2023-04-15T08:25:00;6;6;5
70520;PMS5003;58442;52.716;23.560;2023-04-15T08:27:03;7;7;5
70520;PMS5003;58442;52.716;23.560;2023-04-15T08:29:05;7;7;4
70520;PMS5003;58442;52.716;23.560;2023-04-15T08:31:14;8;8;6
70520;PMS5003;58442;52.716;23.560;2023-04-15T08:33:16;5;5;4
70520;PMS5003;58442;52.716;23.560;2023-04-15T08:35:18;6;6;4
70520;PMS5003;58442;52.716;23.560;2023-04-15T08:37:19;15;8;5
70520;PMS5003;58442;52.716;23.560;2023-04-15T08:39:28;5;5;4
70520;PMS5003;58442;52.716;23.560;2023-04-15T08:41:33;9;9;6
70520;PMS5003;58442;52.716;23.560;2023-04-15T08:43:45;3;3;2
70520;PMS5003;58442;52.716;23.560;2023-04-15T08:45:53;8;8;7
70520;PMS5003;58442;52.716;23.560;2023-04-15T08:47:56;8;8;5
70520;PMS5003;58442;52.716;23.560;2023-04-15T08:50:08;8;8;6
70520;PMS5003;58442;52.716;23.560;2023-04-15T08:52:11;5;5;4
70520;PMS5003;58442;52.716;23.560;2023-04-15T08:54:13;7;7;5
70520;PMS5003;58442;52.716;23.560;2023-04-15T08:56:15;6;6;3
70520;PMS5003;58442;52.716;23.560;2023-04-15T08:58:23;9;9;5
70520;PMS5003;58442;52.716;23.560;2023-04-15T09:00:26;8;8;7
70520;PMS5003;58442;52.716;23.560;2023-04-15T09:02:28;5;5;5
70520;PMS5003;58442;52.716;23.560;2023-04-15T09:04:30;6;6;5
70520;PMS5003;58442;52.716;23.560;2023-04-15T09:06:38;5;5;4
70520;PMS5003;58442;52.716;23.560;2023-04-15T09:08:41;7;7;5
70520;PMS5003;58442;52.716;23.560;2023-04-15T09:10:42;6;6;4
70520;PMS5003;58442;52.716;23.560;2023-04-15T09:12:43;7;7;5
70520;PMS5003;58442;52.716;23.560;2023-04-15T09:14:52;7;7;5
70520;PMS5003;58442;52.716;23.560;2023-04-15T09:16:55;6;6;4
70520;PMS5003;58442;52.716;23.560;2023-04-15T09:18:58;5;5;3
70520;PMS5003;58442;52.716;23.560;2023-04-15T09:23:11;7;7;6
70520;PMS5003;58442;52.716;23.560;2023-04-15T09:27:30;10;10;7
70520;PMS5003;58442;52.716;23.560;2023-04-15T09:29:37;7;7;5
70520;PMS5003;58442;52.716;23.560;2023-04-15T09:31:38;5;5;4
70520;PMS5003;58442;52.716;23.560;2023-04-15T09:33:53;7;7;5
70520;PMS5003;58442;52.716;23.560;2023-04-15T09:35:56;8;8;5
70520;PMS5003;58442;52.716;23.560;2023-04-15T09:38:06;7;7;4
70520;PMS5003;58442;52.716;23.560;2023-04-15T09:40:09;8;8;5
70520;PMS5003;58442;52.716;23.560;2023-04-15T09:42:18;6;6;5
70520;PMS5003;58442;52.716;23.560;2023-04-15T09:44:27;6;6;4
70520;PMS5003;58442;52.716;23.560;2023-04-15T09:48:42;6;6;4
70520;PMS5003;58442;52.716;23.560;2023-04-15T09:50:44;4;4;4
70520;PMS5003;58442;52.716;23.560;2023-04-15T09:52:54;5;5;5
70520;PMS5003;58442;52.716;23.560;2023-04-15T09:54:56;6;6;4
70520;PMS5003;58442;52.716;23.560;2023-04-15T09:57:03;5;5;5
70520;PMS5003;58442;52.716;23.560;2023-04-15T09:59:10;8;8;6
70520;PMS5003;58442;52.716;23.560;2023-04-15T10:01:12;5;5;4
70520;PMS5003;58442;52.716;23.560;2023-04-15T10:03:15;5;5;3
70520;PMS5003;58442;52.716;23.560;2023-04-15T10:05:20;6;6;4
70520;PMS5003;58442;52.716;23.560;2023-04-15T10:07:23;5;5;4
70520;PMS5003;58442;52.716;23.560;2023-04-15T10:09:26;8;8;4
70520;PMS5003;58442;52.716;23.560;2023-04-15T10:11:28;10;10;8
70520;PMS5003;58442;52.716;23.560;2023-04-15T10:13:30;8;8;5
70520;PMS5003;58442;52.716;23.560;2023-04-15T10:15:37;7;7;6
70520;PMS5003;58442;52.716;23.560;2023-04-15T10:17:40;7;7;6
70520;PMS5003;58442;52.716;23.560;2023-04-15T10:19:43;5;5;4
70520;PMS5003;58442;52.716;23.560;2023-04-15T10:21:46;6;6;5
70520;PMS5003;58442;52.716;23.560;2023-04-15T10:23:50;3;3;2
70520;PMS5003;58442;52.716;23.560;2023-04-15T10:25:54;5;5;3
70520;PMS5003;58442;52.716;23.560;2023-04-15T10:27:57;4;4;3
70520;PMS5003;58442;52.716;23.560;2023-04-15T10:29:59;5;5;5
70520;PMS5003;58442;52.716;23.560;2023-04-15T10:32:03;5;5;5
70520;PMS5003;58442;52.716;23.560;2023-04-15T10:34:09;3;3;2
70520;PMS5003;58442;52.716;23.560;2023-04-15T10:36:12;5;5;5
70520;PMS5003;58442;52.716;23.560;2023-04-15T10:40:28;5;5;3
70520;PMS5003;58442;52.716;23.560;2023-04-15T10:42:34;5;4;4
70520;PMS5003;58442;52.716;23.560;2023-04-15T10:44:49;4;4;3
70520;PMS5003;58442;52.716;23.560;2023-04-15T10:46:51;4;4;3
70520;PMS5003;58442;52.716;23.560;2023-04-15T10:48:53;4;4;4
70520;PMS5003;58442;52.716;23.560;2023-04-15T10:50:55;2;2;2
70520;PMS5003;58442;52.716;23.560;2023-04-15T10:53:03;4;4;3
70520;PMS5003;58442;52.716;23.560;2023-04-15T10:57:22;7;7;3
70520;PMS5003;58442;52.716;23.560;2023-04-15T10:59:24;10;10;7
70520;PMS5003;58442;52.716;23.560;2023-04-15T11:02:11;6;6;5
70520;PMS5003;58442;52.716;23.560;2023-04-15T11:03:44;8;8;7
70520;PMS5003;58442;52.716;23.560;2023-04-15T11:05:47;1;1;1
70520;PMS5003;58442;52.716;23.560;2023-04-15T11:07:52;6;6;5
70520;PMS5003;58442;52.716;23.560;2023-04-15T11:09:55;4;4;3
70520;PMS5003;58442;52.716;23.560;2023-04-15T11:14:13;3;3;2
70520;PMS5003;58442;52.716;23.560;2023-04-15T11:16:15;4;4;3
70520;PMS5003;58442;52.716;23.560;2023-04-15T11:18:18;5;5;3
70520;PMS5003;58442;52.716;23.560;2023-04-15T11:20:25;5;5;5
70520;PMS5003;58442;52.716;23.560;2023-04-15T11:22:28;4;4;4
70520;PMS5003;58442;52.716;23.560;2023-04-15T11:24:29;5;5;4
70520;PMS5003;58442;52.716;23.560;2023-04-15T11:26:31;4;4;3
70520;PMS5003;58442;52.716;23.560;2023-04-15T11:28:35;4;4;3
70520;PMS5003;58442;52.716;23.560;2023-04-15T11:30:37;3;3;2
70520;PMS5003;58442;52.716;23.560;2023-04-15T11:32:42;3;3;2
70520;PMS5003;58442;52.716;23.560;2023-04-15T11:34:44;5;5;4
70520;PMS5003;58442;52.716;23.560;2023-04-15T11:36:49;4;4;3
70520;PMS5003;58442;52.716;23.560;2023-04-15T11:38:52;4;4;3
70520;PMS5003;58442;52.716;23.560;2023-04-15T11:40:53;5;5;4
70520;PMS5003;58442;52.716;23.560;2023-04-15T11:45:09;1;1;1
70520;PMS5003;58442;52.716;23.560;2023-04-15T11:51:37;4;4;3
70520;PMS5003;58442;52.716;23.560;2023-04-15T11:53:46;3;3;2
70520;PMS5003;58442;52.716;23.560;2023-04-15T11:55:49;5;5;3
70520;PMS5003;58442;52.716;23.560;2023-04-15T12:00:07;8;7;5
70520;PMS5003;58442;52.716;23.560;2023-04-15T12:02:11;4;4;3
70520;PMS5003;58442;52.716;23.560;2023-04-15T12:04:14;4;4;4
70520;PMS5003;58442;52.716;23.560;2023-04-15T12:06:21;3;3;3
70520;PMS5003;58442;52.716;23.560;2023-04-15T12:08:24;4;4;3
70520;PMS5003;58442;52.716;23.560;2023-04-15T12:10:26;4;4;3
70520;PMS5003;58442;52.716;23.560;2023-04-15T12:12:28;5;5;4
70520;PMS5003;58442;52.716;23.560;2023-04-15T12:14:32;4;4;3
70520;PMS5003;58442;52.716;23.560;2023-04-15T12:16:52;6;6;5
70520;PMS5003;58442;52.716;23.560;2023-04-15T12:18:52;4;4;3
70520;PMS5003;58442;52.716;23.560;2023-04-15T12:21:03;5;5;4
70520;PMS5003;58442;52.716;23.560;2023-04-15T12:23:10;3;3;3
70520;PMS5003;58442;52.716;23.560;2023-04-15T12:25:14;11;11;7
70520;PMS5003;58442;52.716;23.560;2023-04-15T12:27:15;7;7;5
70520;PMS5003;58442;52.716;23.560;2023-04-15T12:29:17;8;8;4
70520;PMS5003;58442;52.716;23.560;2023-04-15T12:31:19;7;7;3
70520;PMS5003;58442;52.716;23.560;2023-04-15T12:33:21;12;12;7
70520;PMS5003;58442;52.716;23.560;2023-04-15T12:35:22;4;4;3
70520;PMS5003;58442;52.716;23.560;2023-04-15T12:37:24;7;7;5
70520;PMS5003;58442;52.716;23.560;2023-04-15T12:39:35;6;6;4
70520;PMS5003;58442;52.716;23.560;2023-04-15T12:41:38;9;9;5
70520;PMS5003;58442;52.716;23.560;2023-04-15T12:43:40;10;9;7
70520;PMS5003;58442;52.716;23.560;2023-04-15T12:45:41;3;3;2
70520;PMS5003;58442;52.716;23.560;2023-04-15T12:47:49;9;9;7
70520;PMS5003;58442;52.716;23.560;2023-04-15T12:49:51;5;5;5
70520;PMS5003;58442;52.716;23.560;2023-04-15T12:51:54;5;4;3
70520;PMS5003;58442;52.716;23.560;2023-04-15T12:53:57;5;5;4
70520;PMS5003;58442;52.716;23.560;2023-04-15T12:56:04;6;6;4
70520;PMS5003;58442;52.716;23.560;2023-04-15T12:58:06;6;6;5
70520;PMS5003;58442;52.716;23.560;2023-04-15T13:00:08;4;4;4
70520;PMS5003;58442;52.716;23.560;2023-04-15T13:02:10;4;4;4
70520;PMS5003;58442;52.716;23.560;2023-04-15T13:04:19;25;23;10
70520;PMS5003;58442;52.716;23.560;2023-04-15T13:06:21;16;16;10
70520;PMS5003;58442;52.716;23.560;2023-04-15T13:08:24;5;5;3
70520;PMS5003;58442;52.716;23.560;2023-04-15T13:10:26;7;7;5
70520;PMS5003;58442;52.716;23.560;2023-04-15T13:12:34;4;4;3
70520;PMS5003;58442;52.716;23.560;2023-04-15T13:14:38;6;6;6
70520;PMS5003;58442;52.716;23.560;2023-04-15T13:16:40;6;5;4
70520;PMS5003;58442;52.716;23.560;2023-04-15T13:18:42;5;5;5
70520;PMS5003;58442;52.716;23.560;2023-04-15T13:20:49;6;6;5
70520;PMS5003;58442;52.716;23.560;2023-04-15T13:22:51;6;6;5
70520;PMS5003;58442;52.716;23.560;2023-04-15T13:24:54;19;19;12
70520;PMS5003;58442;52.716;23.560;2023-04-15T13:26:56;8;8;5
70520;PMS5003;58442;52.716;23.560;2023-04-15T13:29:03;10;10;7
70520;PMS5003;58442;52.716;23.560;2023-04-15T13:31:05;12;12;8
70520;PMS5003;58442;52.716;23.560;2023-04-15T13:33:06;5;5;4
70520;PMS5003;58442;52.716;23.560;2023-04-15T13:35:08;4;4;4
70520;PMS5003;58442;52.716;23.560;2023-04-15T13:37:18;9;8;4
70520;PMS5003;58442;52.716;23.560;2023-04-15T13:39:20;11;11;7
70520;PMS5003;58442;52.716;23.560;2023-04-15T13:41:22;10;10;6
70520;PMS5003;58442;52.716;23.560;2023-04-15T13:43:28;7;7;6
70520;PMS5003;58442;52.716;23.560;2023-04-15T13:45:41;5;5;4
70520;PMS5003;58442;52.716;23.560;2023-04-15T13:47:55;7;7;5
70520;PMS5003;58442;52.716;23.560;2023-04-15T13:50:08;5;5;5